createdAt,value
2019-01-13T00:04:03.023Z,0.90
2019-01-13T00:08:07.487Z,0.70
2019-01-13T00:12:11.762Z,0.90
2019-01-13T00:16:16.087Z,0.90
2019-01-13T00:20:20.341Z,0.80
2019-01-13T00:24:24.612Z,0.70
2019-01-13T00:28:28.876Z,0.83
2019-01-13T00:32:33.171Z,0.70
2019-01-13T00:36:37.472Z,0.70
2019-01-13T00:40:42.246Z,0.70
2019-01-13T00:44:46.572Z,0.70
2019-01-13T00:48:50.839Z,0.70
2019-01-13T00:52:55.140Z,0.50
2019-01-13T00:56:59.479Z,0.70
2019-01-13T01:01:03.864Z,0.70
2019-01-13T01:05:09.677Z,0.50
2019-01-13T01:09:13.967Z,0.60
2019-01-13T01:13:18.368Z,0.43
2019-01-13T01:17:22.638Z,0.60
2019-01-13T01:21:30.225Z,0.43
2019-01-13T01:25:41.671Z,0.50
2019-01-13T01:29:45.915Z,0.50
2019-01-13T01:33:55.551Z,0.40
2019-01-13T01:37:59.877Z,0.57
2019-01-13T01:42:04.244Z,0.40
2019-01-13T01:46:08.552Z,0.43
2019-01-13T01:50:14.247Z,0.33
2019-01-13T01:54:18.873Z,0.40
2019-01-13T01:58:23.466Z,0.50
2019-01-13T02:02:27.757Z,0.40
2019-01-13T02:06:32.233Z,0.40
2019-01-13T02:10:36.575Z,0.40
2019-01-13T02:14:40.916Z,0.37
2019-01-13T02:18:45.159Z,0.40
2019-01-13T02:22:49.664Z,0.33
2019-01-13T02:26:53.915Z,0.23
2019-01-13T02:30:58.306Z,0.30
2019-01-13T02:35:02.860Z,0.33
2019-01-13T02:39:08.141Z,0.30
2019-01-13T02:43:12.464Z,0.37
2019-01-13T02:47:16.817Z,0.40
2019-01-13T02:51:21.170Z,0.33
2019-01-13T02:55:25.413Z,0.37
2019-01-13T02:59:29.705Z,0.30
2019-01-13T03:03:33.930Z,0.40
2019-01-13T03:07:38.197Z,0.13
2019-01-13T03:11:42.820Z,0.30
2019-01-13T03:15:47.138Z,0.30
2019-01-13T03:19:51.470Z,0.20
2019-01-13T03:23:55.750Z,0.50
2019-01-13T03:28:00.070Z,0.20
2019-01-13T03:32:04.414Z,0.33
2019-01-13T03:36:08.962Z,0.30
2019-01-13T03:40:16.205Z,0.40
2019-01-13T03:44:20.487Z,0.40
2019-01-13T03:48:25.025Z,0.50
2019-01-13T03:52:29.300Z,0.40
2019-01-13T03:56:33.562Z,0.50
2019-01-13T04:00:37.826Z,0.57
2019-01-13T04:04:42.211Z,0.30
2019-01-13T04:08:46.420Z,0.50
2019-01-13T04:12:50.749Z,0.40
2019-01-13T04:16:55.728Z,0.40
2019-01-13T04:21:00.024Z,0.37
2019-01-13T04:25:04.828Z,0.40
2019-01-13T04:29:09.101Z,0.50
2019-01-13T04:33:13.345Z,0.50
2019-01-13T04:37:17.631Z,0.60
2019-01-13T04:41:21.908Z,0.37
2019-01-13T04:45:26.187Z,0.40
2019-01-13T04:49:30.438Z,0.40
2019-01-13T04:53:34.783Z,0.50
2019-01-13T04:57:38.998Z,0.47
2019-01-13T05:01:43.311Z,0.40
2019-01-13T05:05:47.566Z,0.40
2019-01-13T05:09:52.868Z,0.30
2019-01-13T05:13:57.149Z,0.40
2019-01-13T05:18:01.481Z,0.37
2019-01-13T05:22:05.778Z,0.50
2019-01-13T05:26:10.088Z,0.40
2019-01-13T05:30:22.603Z,0.50
2019-01-13T05:34:26.856Z,0.60
2019-01-13T05:38:31.152Z,0.63
2019-01-13T05:42:35.447Z,0.50
2019-01-13T05:46:39.712Z,0.60
2019-01-13T05:50:43.989Z,0.70
2019-01-13T05:54:48.426Z,0.60
2019-01-13T05:58:52.700Z,0.67
2019-01-13T06:02:57.016Z,0.50
2019-01-13T06:07:01.305Z,0.67
2019-01-13T06:11:05.760Z,0.60
2019-01-13T06:15:14.536Z,0.60
2019-01-13T06:19:18.926Z,0.80
2019-01-13T06:23:23.292Z,0.83
2019-01-13T06:27:27.558Z,0.70
2019-01-13T06:31:31.853Z,0.80
2019-01-13T06:35:36.121Z,0.80
2019-01-13T06:39:40.402Z,0.90
2019-01-13T06:43:44.667Z,0.83
2019-01-13T06:47:49.072Z,1.00
2019-01-13T06:51:53.353Z,0.67
2019-01-13T06:55:57.637Z,0.83
2019-01-13T07:00:01.885Z,0.90
2019-01-13T07:04:06.286Z,0.90
2019-01-13T07:08:10.597Z,0.90
2019-01-13T07:12:14.891Z,1.00
2019-01-13T07:16:19.264Z,1.00
2019-01-13T07:20:23.732Z,1.00
2019-01-13T07:24:28.013Z,1.00
2019-01-13T07:28:32.277Z,1.00
2019-01-13T07:32:36.647Z,1.00
2019-01-13T07:36:41.105Z,1.13
2019-01-13T07:40:45.350Z,1.10
2019-01-13T07:44:49.636Z,1.00
2019-01-13T07:48:53.880Z,1.00
2019-01-13T07:52:58.225Z,0.90
2019-01-13T07:57:02.521Z,1.00
2019-01-13T08:01:07.342Z,1.00
2019-01-13T08:05:12.119Z,1.00
2019-01-13T08:09:16.438Z,1.10
2019-01-13T08:13:20.757Z,0.80
2019-01-13T08:17:25.060Z,0.83
2019-01-13T08:21:29.382Z,0.80
2019-01-13T08:25:33.719Z,0.80
2019-01-13T08:29:38.024Z,1.03
2019-01-13T08:33:42.225Z,0.90
2019-01-13T08:37:46.532Z,0.80
2019-01-13T08:41:50.806Z,0.90
2019-01-13T08:45:55.108Z,0.87
2019-01-13T08:49:59.353Z,0.70
2019-01-13T08:54:03.634Z,0.80
2019-01-13T08:58:07.991Z,0.73
2019-01-13T09:02:12.241Z,0.77
2019-01-13T09:06:16.879Z,0.70
2019-01-13T09:10:21.268Z,0.70
2019-01-13T09:14:25.641Z,1.10
2019-01-13T09:18:29.938Z,0.90
2019-01-13T09:22:34.220Z,0.80
2019-01-13T09:26:38.909Z,0.90
2019-01-13T09:30:43.238Z,1.07
2019-01-13T09:34:47.569Z,1.07
2019-01-13T09:38:51.840Z,1.23
2019-01-13T09:42:56.185Z,0.90
2019-01-13T09:47:00.453Z,1.00
2019-01-13T09:51:04.707Z,0.70
2019-01-13T09:55:10.814Z,0.73
2019-01-13T09:59:15.088Z,1.00
2019-01-13T10:03:19.362Z,1.00
2019-01-13T10:07:23.625Z,1.00
2019-01-13T10:11:27.870Z,0.87
2019-01-13T10:15:32.210Z,0.90
2019-01-13T10:19:36.481Z,1.00
2019-01-13T10:23:40.747Z,0.90
2019-01-13T10:27:45.041Z,0.90
2019-01-13T10:31:49.363Z,1.00
2019-01-13T10:35:53.632Z,1.00
2019-01-13T10:39:59.460Z,1.00
2019-01-13T10:44:03.804Z,1.20
2019-01-13T10:48:08.059Z,1.23
2019-01-13T10:52:12.525Z,1.20
2019-01-13T10:56:16.772Z,0.87
2019-01-13T11:00:29.427Z,1.20
2019-01-13T11:04:33.680Z,1.23
2019-01-13T11:08:37.942Z,1.40
2019-01-13T11:12:42.237Z,1.37
2019-01-13T11:16:46.514Z,1.30
2019-01-13T11:20:50.794Z,1.57
2019-01-13T11:24:55.121Z,1.40
2019-01-13T11:28:59.793Z,1.30
2019-01-13T11:33:09.297Z,1.60
2019-01-13T11:37:10.099Z,1.30
2019-01-13T11:41:14.385Z,1.30
2019-01-13T11:45:18.772Z,1.30
2019-01-13T11:49:23.119Z,1.27
2019-01-13T11:53:27.414Z,1.17
2019-01-13T11:57:34.267Z,1.40
2019-01-13T12:01:38.487Z,1.27
2019-01-13T12:05:42.797Z,1.10
2019-01-13T12:09:47.083Z,1.33
2019-01-13T12:13:52.391Z,1.50
2019-01-13T12:17:56.716Z,1.43
2019-01-13T12:22:04.787Z,1.33
2019-01-13T12:26:09.309Z,1.90
2019-01-13T12:30:20.476Z,1.47
2019-01-13T12:34:24.828Z,1.60
2019-01-13T12:38:29.212Z,1.33
2019-01-13T12:42:33.503Z,1.43
2019-01-13T12:46:39.010Z,1.33
2019-01-13T12:50:43.318Z,1.43
2019-01-13T12:54:48.882Z,1.50
2019-01-13T12:58:53.336Z,1.40
2019-01-13T13:02:57.940Z,1.20
2019-01-13T13:07:04.232Z,1.27
2019-01-13T13:11:08.694Z,1.43
2019-01-13T13:15:13.136Z,1.13
2019-01-13T13:19:17.451Z,1.30
2019-01-13T13:23:21.856Z,1.10
2019-01-13T13:27:26.125Z,1.20
2019-01-13T13:31:30.469Z,1.20
2019-01-13T13:35:39.606Z,1.20
2019-01-13T13:39:41.561Z,1.10
2019-01-13T13:43:44.081Z,1.20
2019-01-13T13:47:52.705Z,1.30
2019-01-13T13:51:59.046Z,1.10
2019-01-13T13:56:03.333Z,0.83
2019-01-13T14:00:16.550Z,1.00
2019-01-13T14:04:21.826Z,0.80
2019-01-13T14:08:26.111Z,0.60
2019-01-13T14:12:30.433Z,0.70
2019-01-13T14:16:35.503Z,0.70
2019-01-13T14:20:39.909Z,0.80
2019-01-13T14:24:44.202Z,0.60
2019-01-13T14:28:48.493Z,0.70
2019-01-13T14:32:53.047Z,0.43
2019-01-13T14:36:57.332Z,0.60
2019-01-13T14:41:01.707Z,0.70
2019-01-13T14:45:08.748Z,0.50
2019-01-13T14:49:13.041Z,0.70
2019-01-13T14:53:17.398Z,0.70
2019-01-13T14:57:21.723Z,0.50
2019-01-13T15:01:26.061Z,0.60
2019-01-13T15:05:32.008Z,0.43
2019-01-13T15:09:36.458Z,0.67
2019-01-13T15:13:41.177Z,0.67
2019-01-13T15:17:45.519Z,0.70
2019-01-13T15:21:49.814Z,0.70
2019-01-13T15:25:54.542Z,0.50
2019-01-13T15:30:00.662Z,0.50
2019-01-13T15:34:07.370Z,0.60
2019-01-13T15:38:11.484Z,0.50
2019-01-13T15:42:16.235Z,0.50
2019-01-13T15:46:21.135Z,0.50
2019-01-13T15:50:27.323Z,0.30
2019-01-13T15:54:31.822Z,0.43
2019-01-13T15:58:36.059Z,0.60
2019-01-13T16:02:40.365Z,0.50
2019-01-13T16:06:44.715Z,0.40
2019-01-13T16:10:49.052Z,0.30
2019-01-13T16:14:53.395Z,0.50
2019-01-13T16:18:57.980Z,0.33
2019-01-13T16:23:02.597Z,0.50
2019-01-13T16:27:06.784Z,0.30
2019-01-13T16:31:11.190Z,0.30
2019-01-13T16:35:15.485Z,0.20
2019-01-13T16:39:19.751Z,0.43
2019-01-13T16:43:24.034Z,0.30
2019-01-13T16:47:28.287Z,0.40
2019-01-13T16:51:32.691Z,0.40
2019-01-13T16:55:37.063Z,0.40
2019-01-13T16:59:42.251Z,0.37
2019-01-13T17:03:46.590Z,0.50
2019-01-13T17:07:51.454Z,0.43
2019-01-13T17:11:55.720Z,0.40
2019-01-13T17:15:59.981Z,0.30
2019-01-13T17:20:05.403Z,0.47
2019-01-13T17:24:09.839Z,0.60
2019-01-13T17:28:17.589Z,0.50
2019-01-13T17:32:21.919Z,0.50
2019-01-13T17:36:26.201Z,0.40
2019-01-13T17:40:30.476Z,0.40
2019-01-13T17:44:34.786Z,0.40
2019-01-13T17:48:39.062Z,0.40
2019-01-13T17:52:44.312Z,0.30
2019-01-13T17:56:51.303Z,0.30
2019-01-13T18:01:06.234Z,0.50
2019-01-13T18:05:12.662Z,0.30
2019-01-13T18:09:16.991Z,0.50
2019-01-13T18:13:21.365Z,0.50
2019-01-13T18:17:26.206Z,0.37
2019-01-13T18:21:30.494Z,0.50
2019-01-13T18:25:35.171Z,0.50
2019-01-13T18:29:39.377Z,0.50
2019-01-13T18:33:43.846Z,0.50
2019-01-13T18:37:48.577Z,0.50
2019-01-13T18:41:52.869Z,0.60
2019-01-13T18:45:57.238Z,0.60
2019-01-13T18:50:01.617Z,0.50
2019-01-13T18:54:06.296Z,0.40
2019-01-13T18:58:12.648Z,0.50
2019-01-13T19:02:16.975Z,0.50
2019-01-13T19:06:22.405Z,0.60
2019-01-13T19:10:36.541Z,0.50
2019-01-13T19:14:47.475Z,0.37
2019-01-13T19:18:51.771Z,0.83
2019-01-13T19:22:59.131Z,0.53
2019-01-13T19:27:04.439Z,0.40
2019-01-13T19:31:09.016Z,0.50
2019-01-13T19:35:13.907Z,0.30
2019-01-13T19:39:18.179Z,0.37
2019-01-13T19:43:22.481Z,0.40
2019-01-13T19:47:27.048Z,0.50
2019-01-13T19:51:31.269Z,0.53
2019-01-13T19:55:35.547Z,0.30
2019-01-13T19:59:39.941Z,0.50
2019-01-13T20:03:44.191Z,0.40
2019-01-13T20:07:48.625Z,0.40
2019-01-13T20:11:53.121Z,0.40
2019-01-13T20:15:57.396Z,0.50
2019-01-13T20:20:01.998Z,0.40
2019-01-13T20:24:06.306Z,0.50
2019-01-13T20:28:10.644Z,0.40
2019-01-13T20:32:14.926Z,0.40
2019-01-13T20:36:19.218Z,0.30
2019-01-13T20:40:23.514Z,0.40
2019-01-13T20:44:27.807Z,0.47
2019-01-13T20:48:32.377Z,0.30
2019-01-13T20:52:36.621Z,0.30
2019-01-13T20:56:40.838Z,0.50
2019-01-13T21:00:45.129Z,0.30
2019-01-13T21:05:08.487Z,0.40
2019-01-13T21:09:12.798Z,0.30
2019-01-13T21:13:17.289Z,0.47
2019-01-13T21:17:21.572Z,0.33
2019-01-13T21:21:25.854Z,0.40
2019-01-13T21:25:31.217Z,0.40
2019-01-13T21:29:35.576Z,0.40
2019-01-13T21:33:39.902Z,0.40
2019-01-13T21:37:44.240Z,0.43
2019-01-13T21:41:48.540Z,0.50
2019-01-13T21:45:52.826Z,0.40
2019-01-13T21:49:57.087Z,0.40
2019-01-13T21:54:01.371Z,0.40
2019-01-13T21:58:05.804Z,0.50
2019-01-13T22:02:10.483Z,0.57
2019-01-13T22:06:16.680Z,0.50
2019-01-13T22:10:22.198Z,0.43
2019-01-13T22:14:29.812Z,0.40
2019-01-13T22:18:34.267Z,0.50
2019-01-13T22:22:38.594Z,0.50
2019-01-13T22:26:44.908Z,0.30
2019-01-13T22:30:49.323Z,0.40
2019-01-13T22:34:59.019Z,0.40
2019-01-13T22:39:04.984Z,0.30
2019-01-13T22:43:09.320Z,0.40
2019-01-13T22:47:13.564Z,0.30
2019-01-13T22:51:17.878Z,0.20
2019-01-13T22:55:22.401Z,0.30
2019-01-13T22:59:26.667Z,0.43
2019-01-13T23:03:31.010Z,0.30
2019-01-13T23:07:35.377Z,0.30
2019-01-13T23:11:39.706Z,0.30
2019-01-13T23:15:43.999Z,0.30
2019-01-13T23:19:48.248Z,0.20
2019-01-13T23:23:52.604Z,0.27
2019-01-13T23:27:56.912Z,0.40
2019-01-13T23:32:01.189Z,0.40
2019-01-13T23:36:05.491Z,0.40
2019-01-13T23:40:10.110Z,0.43
2019-01-13T23:44:14.827Z,0.40
2019-01-13T23:48:19.184Z,0.50
2019-01-13T23:52:23.533Z,0.50
2019-01-13T23:56:27.934Z,0.40
